CheckWX is a tool to help pilots better visualize weather data.  It is not intended as a substitute for an official pre-flight weather briefing.

21:38:47 UTC

KAIA METAR
Alliance Municipal Airport
Alliance, Nebraska, USA
Current

46 mins ago

KAIA 082053Z AUTO 31008KT 10SM CLR 12/M03 A3009 RMK AO2 SLP185 T01171028 58010
Observed
Apr-8 @ 20:53 UTC
Wind
  • 310° at 8 KTS
Visibility
Flight Rules
VFR
Cloud Levels
  • Clear skies
Temperature
12°C / 54°F
Dewpoint
-3°C / 27°F
Humidity
35%
Altimeter
30.09" Hg
Pressure
1018.92 hPa
Previous

2 hours ago

KAIA 081953Z AUTO 36009G15KT 10SM CLR 11/M03 A3012 RMK AO2 SLP198 T01111028
Observed
Apr-8 @ 19:53 UTC
Wind
  • 360° at 9 KTS
  • Gusting to 15 KTS
Visibility
Flight Rules
VFR
Cloud Levels
  • Clear skies
Temperature
11°C / 52°F
Dewpoint
-3°C / 27°F
Humidity
38%
Altimeter
30.12" Hg
Pressure
1020.02 hPa
Previous

3 hours ago

KAIA 081853Z AUTO 03011G21KT 10SM CLR 11/M02 A3012 RMK AO2 SLP202 T01061022
Observed
Apr-8 @ 18:53 UTC
Wind
  • 030° at 11 KTS
  • Gusting to 21 KTS
Visibility
Flight Rules
VFR
Cloud Levels
  • Clear skies
Temperature
11°C / 52°F
Dewpoint
-2°C / 28°F
Humidity
41%
Altimeter
30.12" Hg
Pressure
1020.02 hPa